Time;durP1;ratioP1;P1;durP2;ratioP2;P2;SDS_P1;SDS_P2;PMS_P1;PMS_P2;Temp;Humidity;BMP_temperature;BMP_pressure;BME280_temperature;BME280_humidity;BME280_pressure;Samples;Min_cycle;Max_cycle;Signal;HPM_P1;HPM_P2
2021/10/31 00:01:30;;;;;;;9.57;3.30;;;19.60;80.70;;;;;;5089795;28;20046;-65
2021/10/31 00:03:56;;;;;;;12.80;3.17;;;19.60;80.80;;;;;;5086485;28;20031;-64
2021/10/31 00:06:23;;;;;;;9.50;3.95;;;19.60;80.70;;;;;;5084108;28;20012;-72
2021/10/31 00:08:50;;;;;;;10.90;3.58;;;19.50;80.70;;;;;;5090301;28;20031;-74
2021/10/31 00:11:19;;;;;;;9.38;3.40;;;19.50;80.90;;;;;;5088021;28;20020;-64
2021/10/31 00:13:46;;;;;;;10.63;3.35;;;19.50;80.70;;;;;;5089779;28;20024;-68
2021/10/31 00:16:14;;;;;;;11.75;3.58;;;19.60;80.70;;;;;;5085388;28;20062;-66
2021/10/31 00:18:40;;;;;;;9.77;3.97;;;19.50;80.60;;;;;;5089488;28;20509;-66
2021/10/31 00:21:07;;;;;;;10.13;3.45;;;19.50;80.60;;;;;;5088596;28;20034;-69
2021/10/31 00:23:34;;;;;;;7.72;2.95;;;19.50;80.70;;;;;;5085958;28;20420;-66
2021/10/31 00:26:00;;;;;;;15.50;4.93;;;19.50;80.80;;;;;;5089980;28;20052;-66
2021/10/31 00:28:27;;;;;;;12.27;5.60;;;19.50;80.90;;;;;;5085510;28;20028;-65
2021/10/31 00:30:53;;;;;;;10.95;3.60;;;19.50;80.90;;;;;;5089550;28;20486;-65
2021/10/31 00:33:20;;;;;;;8.75;3.22;;;19.40;80.90;;;;;;5087814;28;20048;-70
2021/10/31 00:35:47;;;;;;;8.43;2.20;;;19.40;80.90;;;;;;5089549;28;20024;-65
2021/10/31 00:38:13;;;;;;;7.00;2.67;;;19.40;80.80;;;;;;5087718;28;20024;-65
2021/10/31 00:40:41;;;;;;;5.30;2.42;;;19.40;80.90;;;;;;5088978;28;20069;-66
2021/10/31 00:43:07;;;;;;;8.10;2.30;;;19.40;80.90;;;;;;5086341;28;20054;-65
2021/10/31 00:45:34;;;;;;;8.40;2.83;;;19.40;81.00;;;;;;5087935;28;20024;-66
2021/10/31 00:48:01;;;;;;;7.82;2.70;;;19.40;81.00;;;;;;5089454;28;20028;-66
2021/10/31 00:50:27;;;;;;;7.18;3.00;;;19.30;81.10;;;;;;5088214;28;20101;-65
2021/10/31 00:52:54;;;;;;;10.50;2.15;;;19.30;81.10;;;;;;5087509;28;20012;-66
2021/10/31 00:55:21;;;;;;;9.35;2.60;;;19.30;81.10;;;;;;5089002;28;20225;-66
2021/10/31 00:57:47;;;;;;;16.17;4.57;;;19.30;81.10;;;;;;5089083;28;20008;-66
2021/10/31 01:00:14;;;;;;;9.00;2.92;;;19.30;81.20;;;;;;5087520;28;20016;-66
2021/10/31 01:02:41;;;;;;;16.75;2.88;;;19.30;81.30;;;;;;5087923;28;20028;-72
2021/10/31 01:05:13;;;;;;;11.52;3.13;;;19.30;81.70;;;;;;5087937;28;20032;-65
2021/10/31 01:08:14;;;;;;;12.73;2.47;;;19.20;81.70;;;;;;5084849;28;20016;-67
2021/10/31 01:10:59;;;;;;;9.77;2.15;;;19.20;81.80;;;;;;5086939;28;20020;-70
2021/10/31 01:13:57;;;;;;;7.07;3.08;;;19.20;81.80;;;;;;5089406;28;20028;-71
2021/10/31 01:16:59;;;;;;;4.60;2.38;;;19.20;81.90;;;;;;5087702;28;20507;-64
2021/10/31 01:19:49;;;;;;;8.18;3.35;;;19.20;82.10;;;;;;5087601;28;20033;-66
2021/10/31 01:22:46;;;;;;;10.68;3.17;;;19.20;82.20;;;;;;5089549;28;20032;-65
2021/10/31 01:25:35;;;;;;;6.95;2.75;;;19.10;82.10;;;;;;5088580;28;20447;-65
2021/10/31 01:28:10;;;;;;;10.32;3.55;;;19.20;82.30;;;;;;5092617;28;20626;-65
2021/10/31 01:31:08;;;;;;;16.63;3.78;;;19.20;82.40;;;;;;5093025;28;20650;-65
2021/10/31 01:33:48;;;;;;;6.60;2.83;;;19.10;82.50;;;;;;5090004;28;20429;-67
2021/10/31 01:36:30;;;;;;;15.27;3.85;;;19.10;82.40;;;;;;5092370;28;20069;-69
2021/10/31 01:39:02;;;;;;;8.02;3.97;;;19.10;82.50;;;;;;5087172;28;20104;-65
2021/10/31 01:41:54;;;;;;;11.65;3.15;;;19.10;82.70;;;;;;5092065;28;20034;-65
2021/10/31 01:44:39;;;;;;;9.88;2.95;;;19.10;82.70;;;;;;5087700;28;20036;-65
2021/10/31 01:47:35;;;;;;;13.88;3.72;;;19.10;82.80;;;;;;5085054;28;20445;-64
2021/10/31 01:50:15;;;;;;;18.27;3.92;;;19.10;82.70;;;;;;5090434;28;20030;-66
2021/10/31 01:52:53;;;;;;;9.32;3.55;;;19.10;82.80;;;;;;5092306;28;20027;-67
2021/10/31 01:55:24;;;;;;;10.30;3.88;;;19.10;82.80;;;;;;5091156;28;20031;-65
2021/10/31 01:57:56;;;;;;;10.90;3.58;;;19.10;82.90;;;;;;5091035;28;20016;-65
2021/10/31 02:00:24;;;;;;;13.05;4.13;;;19.10;82.90;;;;;;5090930;28;20096;-65
2021/10/31 02:02:52;;;;;;;14.00;4.30;;;19.10;83.10;;;;;;5092314;28;20490;-66
2021/10/31 02:05:23;;;;;;;11.63;3.15;;;19.10;83.00;;;;;;5091928;28;20059;-67
2021/10/31 02:07:52;;;;;;;11.45;4.72;;;19.10;83.20;;;;;;5091115;28;20062;-66
2021/10/31 02:10:20;;;;;;;14.07;6.55;;;19.10;83.30;;;;;;5089689;28;20021;-65
2021/10/31 02:12:48;;;;;;;13.85;4.03;;;19.10;83.40;;;;;;5091403;28;20035;-65
2021/10/31 02:15:16;;;;;;;12.38;3.83;;;19.10;83.30;;;;;;5091146;28;20019;-64
2021/10/31 02:17:46;;;;;;;14.30;6.63;;;19.00;83.30;;;;;;5090602;28;20039;-65
2021/10/31 02:20:14;;;;;;;15.30;5.00;;;19.00;83.40;;;;;;5088857;28;20463;-67
2021/10/31 02:22:44;;;;;;;9.35;4.72;;;19.00;83.40;;;;;;5091548;28;20062;-69
2021/10/31 02:25:10;;;;;;;13.18;3.80;;;19.00;83.30;;;;;;5090452;28;20076;-65
2021/10/31 02:27:42;;;;;;;13.98;4.40;;;19.00;83.40;;;;;;5091713;28;20047;-65
2021/10/31 02:30:09;;;;;;;13.98;4.15;;;19.00;83.40;;;;;;5090677;28;20024;-65
2021/10/31 02:32:36;;;;;;;15.65;4.40;;;19.00;83.70;;;;;;5089110;28;20008;-68
2021/10/31 02:35:05;;;;;;;11.93;3.72;;;19.00;83.80;;;;;;5090739;28;20446;-64
2021/10/31 02:37:32;;;;;;;52.13;38.42;;;19.00;83.70;;;;;;5091371;28;20024;-64
2021/10/31 02:39:58;;;;;;;26.30;17.92;;;18.90;83.90;;;;;;5091176;28;20055;-66
2021/10/31 02:42:25;;;;;;;14.43;6.43;;;19.00;83.80;;;;;;5087176;28;20023;-69
2021/10/31 02:44:51;;;;;;;8.85;3.72;;;19.00;83.60;;;;;;5091153;28;20036;-66
2021/10/31 02:47:24;;;;;;;8.50;3.72;;;19.00;83.60;;;;;;5084798;28;20483;-65
2021/10/31 02:49:51;;;;;;;17.67;4.43;;;18.90;83.50;;;;;;5091073;28;20024;-65
2021/10/31 02:52:32;;;;;;;11.77;3.72;;;18.90;83.80;;;;;;5090829;28;20040;-70
2021/10/31 02:55:18;;;;;;;12.57;4.35;;;18.90;83.80;;;;;;5090458;28;20484;-65
2021/10/31 02:58:02;;;;;;;15.20;3.83;;;18.90;83.90;;;;;;5090968;28;20022;-65
2021/10/31 03:00:30;;;;;;;7.43;2.60;;;18.90;83.90;;;;;;5087744;28;20380;-68
2021/10/31 03:02:58;;;;;;;11.43;3.35;;;18.90;84.00;;;;;;5090278;28;20027;-71
2021/10/31 03:05:25;;;;;;;11.48;3.70;;;18.90;84.10;;;;;;5086581;28;20032;-70
2021/10/31 03:07:54;;;;;;;10.50;2.83;;;18.90;84.10;;;;;;5090446;28;20502;-66
2021/10/31 03:10:20;;;;;;;12.93;4.05;;;18.90;84.20;;;;;;5090487;28;20031;-66
2021/10/31 03:12:50;;;;;;;11.90;2.97;;;18.90;84.20;;;;;;5089469;28;20095;-69
2021/10/31 03:15:17;;;;;;;10.15;3.92;;;18.90;84.20;;;;;;5089002;28;20020;-66
2021/10/31 03:17:44;;;;;;;7.47;3.00;;;18.90;84.20;;;;;;5089503;28;20017;-70
2021/10/31 03:20:11;;;;;;;8.05;2.63;;;18.90;84.30;;;;;;5090876;28;20017;-66
2021/10/31 03:22:38;;;;;;;13.75;3.67;;;18.90;84.30;;;;;;5089439;28;20095;-66
2021/10/31 03:25:05;;;;;;;14.30;3.30;;;18.90;84.30;;;;;;5090350;28;20032;-66
2021/10/31 03:27:32;;;;;;;12.63;4.05;;;18.90;84.20;;;;;;5089167;28;20024;-69
2021/10/31 03:29:58;;;;;;;14.65;3.22;;;18.90;84.20;;;;;;5089508;28;20024;-70
2021/10/31 03:32:25;;;;;;;13.05;3.45;;;18.90;84.40;;;;;;5090257;28;20089;-69
2021/10/31 03:34:51;;;;;;;7.53;2.85;;;18.90;84.30;;;;;;5089017;28;20044;-71
2021/10/31 03:37:18;;;;;;;9.75;4.35;;;18.80;84.30;;;;;;5087674;28;20028;-70
2021/10/31 03:39:44;;;;;;;10.52;2.38;;;18.90;84.30;;;;;;5089917;28;20026;-66
2021/10/31 03:42:11;;;;;;;6.57;2.35;;;18.80;84.30;;;;;;5090052;28;20031;-65
2021/10/31 03:44:47;;;;;;;8.50;2.50;;;18.80;84.30;;;;;;5087158;28;20822;-65
2021/10/31 03:47:14;;;;;;;10.32;2.17;;;18.80;84.40;;;;;;5088669;28;20106;-65
2021/10/31 03:49:41;;;;;;;8.80;3.47;;;18.80;84.40;;;;;;5090311;28;20020;-69
2021/10/31 03:52:08;;;;;;;6.93;2.25;;;18.70;84.40;;;;;;5089018;28;20108;-65
2021/10/31 03:54:34;;;;;;;9.00;2.70;;;18.70;84.70;;;;;;5090402;28;20020;-73
2021/10/31 03:57:01;;;;;;;8.05;1.88;;;18.70;84.70;;;;;;5088619;28;20043;-67
2021/10/31 03:59:27;;;;;;;9.40;2.05;;;18.70;84.80;;;;;;5090005;28;20030;-66
2021/10/31 04:01:54;;;;;;;14.13;2.92;;;18.70;85.00;;;;;;5088060;28;20013;-67
2021/10/31 04:04:20;;;;;;;8.88;1.90;;;18.70;85.10;;;;;;5086212;28;20035;-66
2021/10/31 04:06:47;;;;;;;6.28;2.30;;;18.70;85.20;;;;;;5090159;28;20016;-66
2021/10/31 04:09:13;;;;;;;6.38;2.08;;;18.70;85.30;;;;;;5087268;28;20016;-65
2021/10/31 04:11:40;;;;;;;7.97;2.65;;;18.60;85.30;;;;;;5089741;28;20027;-65
2021/10/31 04:14:06;;;;;;;7.25;2.13;;;18.60;85.40;;;;;;5082792;28;20024;-66
2021/10/31 04:16:33;;;;;;;9.15;2.28;;;18.60;85.30;;;;;;5089848;28;20085;-71
2021/10/31 04:18:59;;;;;;;10.40;2.72;;;18.60;85.30;;;;;;5088742;28;20062;-70
2021/10/31 04:21:26;;;;;;;7.95;2.20;;;18.70;85.40;;;;;;5089233;28;20047;-67
2021/10/31 04:23:52;;;;;;;4.03;1.95;;;18.60;85.40;;;;;;5088211;28;20036;-66
2021/10/31 04:26:19;;;;;;;14.18;2.58;;;18.60;85.40;;;;;;5088958;28;20020;-68
2021/10/31 04:28:45;;;;;;;10.85;3.20;;;18.60;85.40;;;;;;5085418;28;20375;-65
2021/10/31 04:31:12;;;;;;;9.98;2.45;;;18.60;85.40;;;;;;5088212;28;20023;-68
2021/10/31 04:33:38;;;;;;;9.18;2.20;;;18.60;85.50;;;;;;5089714;28;20127;-67
2021/10/31 04:36:06;;;;;;;8.30;2.33;;;18.60;85.40;;;;;;5088406;28;20028;-66
2021/10/31 04:38:33;;;;;;;6.78;2.28;;;18.60;85.50;;;;;;5088295;28;20027;-70
2021/10/31 04:41:00;;;;;;;8.77;2.28;;;18.60;85.60;;;;;;5089134;28;20027;-61
2021/10/31 04:43:27;;;;;;;7.18;2.47;;;18.50;85.70;;;;;;5089046;28;20604;-63
2021/10/31 04:45:54;;;;;;;3.85;2.50;;;18.50;85.80;;;;;;5087374;28;20004;-66
2021/10/31 04:48:24;;;;;;;11.50;3.55;;;18.50;86.00;;;;;;5082544;28;20045;-66
2021/10/31 04:50:54;;;;;;;7.03;2.40;;;18.60;86.10;;;;;;5085493;28;20024;-65
2021/10/31 04:53:21;;;;;;;24.10;16.17;;;18.50;86.20;;;;;;5085218;28;20016;-65
2021/10/31 04:55:48;;;;;;;39.42;27.80;;;18.60;86.60;;;;;;5087415;28;20020;-70
2021/10/31 04:58:14;;;;;;;20.85;13.82;;;18.60;86.70;;;;;;5091174;28;20518;-66
2021/10/31 05:00:41;;;;;;;10.07;4.28;;;18.70;86.70;;;;;;5090200;28;20012;-65
2021/10/31 05:03:07;;;;;;;12.32;2.65;;;18.70;86.50;;;;;;5091957;28;20028;-65
2021/10/31 05:05:34;;;;;;;8.82;3.08;;;18.70;86.60;;;;;;5088812;28;20042;-67
2021/10/31 05:08:02;;;;;;;9.43;3.22;;;18.70;86.70;;;;;;5088656;28;20027;-67
2021/10/31 05:10:28;;;;;;;5.95;2.90;;;18.80;86.70;;;;;;5090855;28;20471;-66
2021/10/31 05:12:55;;;;;;;6.38;2.03;;;18.80;86.70;;;;;;5091786;28;20427;-66
2021/10/31 05:15:22;;;;;;;11.70;3.40;;;18.80;86.90;;;;;;5091127;28;20074;-71
2021/10/31 05:17:49;;;;;;;10.35;2.58;;;18.80;86.70;;;;;;5088409;28;20027;-68
2021/10/31 05:20:17;;;;;;;6.15;2.22;;;18.90;86.80;;;;;;5088885;28;20017;-65
2021/10/31 05:22:43;;;;;;;6.05;2.85;;;18.90;86.70;;;;;;5087839;28;20027;-66
2021/10/31 05:25:11;;;;;;;6.07;2.10;;;18.90;86.50;;;;;;5091831;28;20386;-65
2021/10/31 05:27:37;;;;;;;7.20;2.45;;;19.00;86.10;;;;;;5090289;28;20547;-66
2021/10/31 05:30:10;;;;;;;10.00;2.03;;;19.00;86.40;;;;;;5092512;28;20051;-67
2021/10/31 05:32:38;;;;;;;12.32;2.53;;;19.00;86.30;;;;;;5090290;28;20020;-66
2021/10/31 05:35:06;;;;;;;8.23;2.95;;;19.00;86.40;;;;;;5090675;28;20394;-66
2021/10/31 05:37:41;;;;;;;7.13;2.90;;;19.10;86.50;;;;;;5091905;28;20030;-71
2021/10/31 05:40:10;;;;;;;8.18;2.70;;;19.10;86.20;;;;;;5088785;28;20102;-71
2021/10/31 05:42:37;;;;;;;10.57;2.40;;;19.10;86.30;;;;;;5091046;28;20453;-66
2021/10/31 05:45:06;;;;;;;12.13;2.47;;;19.20;86.20;;;;;;5090157;28;20032;-68
2021/10/31 05:47:42;;;;;;;6.95;2.10;;;19.20;86.10;;;;;;5089006;28;20073;-69
2021/10/31 05:50:13;;;;;;;3.22;2.22;;;19.30;86.10;;;;;;5091390;28;20074;-70
2021/10/31 05:52:41;;;;;;;5.53;2.00;;;19.30;85.90;;;;;;5089087;28;20016;-71
2021/10/31 05:55:09;;;;;;;5.75;2.97;;;19.40;85.80;;;;;;5091063;28;20027;-65
2021/10/31 05:57:37;;;;;;;9.43;2.70;;;19.40;85.40;;;;;;5088929;28;20055;-68
2021/10/31 06:00:08;;;;;;;7.40;2.47;;;19.50;85.10;;;;;;5091470;28;20016;-66
2021/10/31 06:02:35;;;;;;;5.60;2.22;;;19.50;85.40;;;;;;5088665;28;20020;-68
2021/10/31 06:05:03;;;;;;;6.03;2.97;;;19.60;84.60;;;;;;5091913;28;20024;-67
2021/10/31 06:07:31;;;;;;;34.65;25.70;;;19.60;84.30;;;;;;5087933;28;20100;-71
2021/10/31 06:09:57;;;;;;;33.67;25.10;;;19.60;84.10;;;;;;5089726;28;20023;-72
2021/10/31 06:12:24;;;;;;;13.70;7.97;;;19.70;84.10;;;;;;5090653;28;20514;-71
2021/10/31 06:14:51;;;;;;;14.93;5.70;;;19.70;83.80;;;;;;5089765;28;20070;-69
2021/10/31 06:17:19;;;;;;;5.90;2.47;;;19.80;83.60;;;;;;5088794;28;20473;-68
2021/10/31 06:19:45;;;;;;;9.25;2.75;;;19.90;83.30;;;;;;5089419;28;20061;-70
2021/10/31 06:22:12;;;;;;;8.95;2.92;;;19.90;82.90;;;;;;5091220;28;20452;-64
2021/10/31 06:24:38;;;;;;;5.03;2.05;;;20.00;82.80;;;;;;5089994;28;20062;-66
2021/10/31 06:27:05;;;;;;;5.18;2.33;;;20.00;82.60;;;;;;5088419;28;20417;-63
2021/10/31 06:29:32;;;;;;;7.47;1.92;;;20.10;82.20;;;;;;5090171;28;20020;-65
2021/10/31 06:31:58;;;;;;;9.00;1.92;;;20.20;82.10;;;;;;5089434;28;20012;-74
2021/10/31 06:34:25;;;;;;;8.30;2.97;;;20.20;81.90;;;;;;5088022;28;20563;-71
2021/10/31 06:36:51;;;;;;;3.90;2.17;;;20.30;81.80;;;;;;5089619;28;20012;-75
2021/10/31 06:39:18;;;;;;;109.47;94.15;;;20.40;81.70;;;;;;5090131;28;20022;-73
2021/10/31 06:41:44;;;;;;;30.85;27.15;;;20.50;81.60;;;;;;5089149;28;20027;-73
2021/10/31 06:44:11;;;;;;;21.25;8.27;;;20.50;81.00;;;;;;5087157;28;20024;-69
2021/10/31 06:46:37;;;;;;;11.68;5.90;;;20.60;80.70;;;;;;5089955;28;20009;-73
2021/10/31 06:49:05;;;;;;;8.15;2.97;;;20.70;80.50;;;;;;5088603;28;20027;-66
2021/10/31 06:51:31;;;;;;;8.75;3.17;;;20.80;79.90;;;;;;5090329;28;20107;-69
2021/10/31 06:53:58;;;;;;;4.88;1.90;;;20.80;79.60;;;;;;5088905;28;20024;-73
2021/10/31 06:56:26;;;;;;;11.50;2.88;;;20.90;79.30;;;;;;5089009;28;20019;-67
2021/10/31 06:58:53;;;;;;;9.73;2.60;;;20.90;79.10;;;;;;5089793;28;20020;-74
2021/10/31 07:01:20;;;;;;;9.63;4.85;;;21.00;78.70;;;;;;5087212;28;20069;-66
2021/10/31 07:03:48;;;;;;;12.40;4.35;;;21.00;78.30;;;;;;5083110;28;20016;-74
2021/10/31 07:06:33;;;;;;;14.20;3.78;;;21.10;78.00;;;;;;5088471;28;20110;-67
2021/10/31 07:08:59;;;;;;;10.95;3.78;;;21.20;77.70;;;;;;5069631;28;20498;-68
2021/10/31 07:11:25;;;;;;;9.35;2.78;;;21.20;77.20;;;;;;5088724;28;20430;-67
2021/10/31 07:13:52;;;;;;;10.07;2.83;;;21.20;77.10;;;;;;5089819;28;20025;-70
2021/10/31 07:16:19;;;;;;;12.50;3.55;;;21.30;76.80;;;;;;5088058;28;20016;-70
2021/10/31 07:18:45;;;;;;;12.52;3.10;;;21.40;76.50;;;;;;5086481;28;20452;-69
2021/10/31 07:21:12;;;;;;;9.20;3.03;;;21.40;75.80;;;;;;5089278;28;20020;-70
2021/10/31 07:23:38;;;;;;;10.73;2.67;;;21.50;75.50;;;;;;5088695;28;20409;-69
2021/10/31 07:26:07;;;;;;;8.82;1.75;;;21.50;75.10;;;;;;5088054;28;20017;-68
2021/10/31 07:28:33;;;;;;;13.13;3.28;;;21.60;74.20;;;;;;5087691;28;20066;-70
2021/10/31 07:31:01;;;;;;;14.70;2.75;;;21.60;74.10;;;;;;5089005;28;20031;-69
2021/10/31 07:33:28;;;;;;;9.70;2.88;;;21.70;74.20;;;;;;5086506;28;20039;-69
2021/10/31 07:35:54;;;;;;;13.50;2.28;;;21.70;73.90;;;;;;5088383;28;20023;-69
2021/10/31 07:38:21;;;;;;;8.38;2.58;;;21.80;73.70;;;;;;5088711;28;20467;-68
2021/10/31 07:40:47;;;;;;;12.52;2.60;;;21.90;73.40;;;;;;5087634;28;20073;-70
2021/10/31 07:43:14;;;;;;;11.45;3.40;;;21.90;73.20;;;;;;5089220;28;20023;-68
2021/10/31 07:45:41;;;;;;;6.43;2.70;;;21.90;72.90;;;;;;5086746;28;20024;-69
2021/10/31 07:48:07;;;;;;;11.18;2.45;;;22.00;73.20;;;;;;5087031;28;20021;-67
2021/10/31 07:50:34;;;;;;;7.53;2.90;;;22.10;72.60;;;;;;5084481;28;20494;-70
2021/10/31 07:53:06;;;;;;;11.65;3.05;;;22.10;72.20;;;;;;5088909;28;20024;-66
2021/10/31 07:55:34;;;;;;;5.93;2.10;;;22.20;71.80;;;;;;5087510;28;20481;-68
2021/10/31 07:58:02;;;;;;;7.43;2.42;;;22.30;71.40;;;;;;5086704;28;20016;-69
2021/10/31 08:00:30;;;;;;;6.07;2.10;;;22.30;70.80;;;;;;5088013;28;20035;-68
2021/10/31 08:02:57;;;;;;;5.78;2.42;;;22.40;70.00;;;;;;5087421;28;20024;-67
2021/10/31 08:05:25;;;;;;;4.60;1.85;;;22.60;69.50;;;;;;5088175;28;20405;-68
2021/10/31 08:07:52;;;;;;;12.88;3.08;;;22.60;68.50;;;;;;5086974;28;20513;-67
2021/10/31 08:10:19;;;;;;;7.75;2.17;;;22.70;68.40;;;;;;5088947;28;20058;-68
2021/10/31 08:12:47;;;;;;;10.50;2.63;;;22.70;68.50;;;;;;5088226;28;20038;-67
2021/10/31 08:15:14;;;;;;;13.88;3.25;;;22.80;69.00;;;;;;5087845;28;20095;-67
2021/10/31 08:17:41;;;;;;;6.70;2.10;;;22.90;69.30;;;;;;5088545;28;20024;-69
2021/10/31 08:20:09;;;;;;;8.98;2.40;;;22.90;69.20;;;;;;5086420;28;20055;-68
2021/10/31 08:22:35;;;;;;;8.50;2.85;;;23.00;69.00;;;;;;5089188;28;20028;-66
2021/10/31 08:25:03;;;;;;;6.28;3.33;;;23.10;69.10;;;;;;5084420;28;20028;-67
2021/10/31 08:27:31;;;;;;;9.55;3.35;;;23.20;69.10;;;;;;5088462;28;20024;-68
2021/10/31 08:29:57;;;;;;;11.73;3.22;;;23.20;68.70;;;;;;5083939;28;20020;-67
2021/10/31 08:32:26;;;;;;;10.30;2.67;;;23.20;68.50;;;;;;5086374;28;20107;-67
2021/10/31 08:34:53;;;;;;;5.72;2.35;;;23.30;68.50;;;;;;5087473;28;20121;-67
2021/10/31 08:37:20;;;;;;;7.57;3.65;;;23.40;68.60;;;;;;5087170;28;20453;-67
2021/10/31 08:39:46;;;;;;;12.77;3.08;;;23.40;67.70;;;;;;5088236;28;20020;-67
2021/10/31 08:42:14;;;;;;;4.93;2.30;;;23.50;67.20;;;;;;5086942;28;20372;-67
2021/10/31 08:44:41;;;;;;;5.00;2.10;;;23.60;66.70;;;;;;5089186;28;20395;-67
2021/10/31 08:47:07;;;;;;;8.45;2.63;;;23.60;66.10;;;;;;5086699;28;20147;-67
2021/10/31 08:49:34;;;;;;;8.32;2.35;;;23.70;65.60;;;;;;5088269;28;20020;-67
2021/10/31 08:52:05;;;;;;;11.13;2.30;;;23.70;65.50;;;;;;5087392;28;20024;-66
2021/10/31 08:54:39;;;;;;;7.32;3.13;;;23.80;65.00;;;;;;5086144;28;20103;-67
2021/10/31 08:57:07;;;;;;;7.25;2.35;;;23.80;64.40;;;;;;5086781;28;20075;-67
2021/10/31 08:59:34;;;;;;;8.70;2.70;;;23.80;64.10;;;;;;5085095;28;20030;-66
2021/10/31 09:02:02;;;;;;;10.55;4.03;;;23.90;64.60;;;;;;5084560;28;20018;-68
2021/10/31 09:04:29;;;;;;;14.88;7.00;;;23.90;64.60;;;;;;5084319;28;20036;-70
2021/10/31 09:06:55;;;;;;;6.97;2.90;;;23.90;64.60;;;;;;5085410;28;20444;-67
2021/10/31 09:09:24;;;;;;;6.40;2.47;;;24.00;64.70;;;;;;5087283;28;20371;-67
2021/10/31 09:11:51;;;;;;;6.88;3.08;;;24.00;64.40;;;;;;5084085;28;20069;-68
2021/10/31 09:14:17;;;;;;;15.45;4.93;;;24.00;64.80;;;;;;5088840;28;20027;-69
2021/10/31 09:16:44;;;;;;;11.95;3.97;;;24.00;65.10;;;;;;5087172;28;20023;-69
2021/10/31 09:19:11;;;;;;;8.48;2.85;;;24.10;64.90;;;;;;5088025;28;20024;-68
2021/10/31 09:21:38;;;;;;;10.98;2.60;;;24.10;64.50;;;;;;5086542;28;20020;-67
2021/10/31 09:24:05;;;;;;;7.07;2.90;;;24.10;64.30;;;;;;5087180;28;20116;-66
2021/10/31 09:26:31;;;;;;;8.10;2.58;;;24.20;64.90;;;;;;5084163;28;20020;-69
2021/10/31 09:28:58;;;;;;;11.20;3.53;;;24.30;64.00;;;;;;5086428;28;20046;-67
2021/10/31 09:31:24;;;;;;;8.45;2.78;;;24.30;63.40;;;;;;5088671;28;20032;-69
2021/10/31 09:33:51;;;;;;;9.60;2.85;;;24.20;63.50;;;;;;5086929;28;20033;-67
2021/10/31 09:36:17;;;;;;;7.50;2.88;;;24.20;64.00;;;;;;5087333;28;20020;-68
2021/10/31 09:38:44;;;;;;;9.45;2.33;;;24.20;64.40;;;;;;5087110;28;20015;-68
2021/10/31 09:41:13;;;;;;;10.82;4.10;;;24.20;64.70;;;;;;5087718;28;20031;-67
2021/10/31 09:43:47;;;;;;;9.30;3.10;;;24.30;65.00;;;;;;5089135;28;20059;-69
2021/10/31 09:46:14;;;;;;;19.75;5.75;;;24.30;64.80;;;;;;5090698;28;20120;-68
2021/10/31 09:48:41;;;;;;;7.70;3.25;;;24.40;64.60;;;;;;5089796;28;20032;-69
2021/10/31 09:51:08;;;;;;;11.18;2.50;;;24.60;63.80;;;;;;5089697;28;21798;-67
2021/10/31 09:53:36;;;;;;;10.32;3.35;;;24.60;62.60;;;;;;5092305;28;20467;-68
2021/10/31 09:56:03;;;;;;;5.82;2.35;;;24.70;62.20;;;;;;5088363;28;20012;-67
2021/10/31 09:58:38;;;;;;;4.95;2.05;;;24.70;61.70;;;;;;5089764;28;20099;-68
2021/10/31 10:01:52;;;;;;;5.35;1.70;;;24.70;61.30;;;;;;5088241;28;20020;-70
2021/10/31 10:04:37;;;;;;;9.52;5.15;;;24.90;61.10;;;;;;5089099;28;20032;-69
2021/10/31 10:07:09;;;;;;;9.00;5.07;;;25.00;60.20;;;;;;5089744;28;20047;-69
2021/10/31 10:09:36;;;;;;;9.68;4.78;;;25.10;60.10;;;;;;5090617;28;20098;-70
2021/10/31 10:12:17;;;;;;;6.40;2.45;;;25.20;60.30;;;;;;5086363;28;20017;-67
2021/10/31 10:15:00;;;;;;;5.05;1.92;;;25.30;59.80;;;;;;5090437;28;20032;-67
2021/10/31 10:17:41;;;;;;;10.63;2.63;;;25.50;59.80;;;;;;5089690;28;20028;-67
2021/10/31 10:20:12;;;;;;;5.07;2.35;;;25.50;60.00;;;;;;5089053;28;20028;-67
2021/10/31 10:22:38;;;;;;;7.30;2.47;;;25.50;58.40;;;;;;5089484;28;20022;-69
2021/10/31 10:25:05;;;;;;;8.00;2.45;;;25.60;58.60;;;;;;5089154;28;20036;-66
2021/10/31 10:27:44;;;;;;;12.93;2.55;;;25.60;58.60;;;;;;5090158;28;20419;-67
2021/10/31 10:30:17;;;;;;;142.50;127.97;;;25.60;58.30;;;;;;5086666;28;20024;-66
2021/10/31 10:32:56;;;;;;;19.52;13.05;;;25.60;57.90;;;;;;5090146;28;20017;-67
2021/10/31 10:35:26;;;;;;;7.18;4.95;;;25.60;58.20;;;;;;5087758;28;20065;-66
2021/10/31 10:37:54;;;;;;;8.70;2.55;;;25.70;58.00;;;;;;5086814;28;20494;-66
2021/10/31 10:40:24;;;;;;;4.80;1.98;;;25.70;57.60;;;;;;5089376;28;20024;-72
2021/10/31 10:42:59;;;;;;;24.08;21.33;;;25.70;57.80;;;;;;5087784;28;20091;-67
2021/10/31 10:45:28;;;;;;;9.40;5.97;;;25.80;57.70;;;;;;5089891;28;20035;-68
2021/10/31 10:47:58;;;;;;;5.20;2.28;;;25.90;57.50;;;;;;5085640;28;20087;-70
2021/10/31 10:50:44;;;;;;;5.18;2.47;;;25.90;57.50;;;;;;5088425;28;20499;-65
2021/10/31 10:53:17;;;;;;;8.57;2.47;;;25.90;57.80;;;;;;5089139;28;20058;-69
2021/10/31 10:55:44;;;;;;;10.48;2.63;;;25.90;58.00;;;;;;5086319;28;20016;-65
2021/10/31 10:58:13;;;;;;;7.35;2.38;;;25.90;57.40;;;;;;5089358;28;20725;-71
2021/10/31 11:00:43;;;;;;;6.25;2.38;;;26.00;57.80;;;;;;5087192;28;20108;-66
2021/10/31 11:03:20;;;;;;;11.27;3.55;;;26.10;57.80;;;;;;5088891;28;20395;-67
2021/10/31 11:05:49;;;;;;;9.85;2.70;;;26.20;57.20;;;;;;5086169;28;20114;-67
2021/10/31 11:08:18;;;;;;;8.63;2.85;;;26.20;56.30;;;;;;5086421;28;20042;-67
2021/10/31 11:10:54;;;;;;;7.63;2.45;;;26.30;56.40;;;;;;5089111;28;20019;-72
2021/10/31 11:13:22;;;;;;;6.18;2.30;;;26.40;56.40;;;;;;5088538;28;20054;-70
2021/10/31 11:15:49;;;;;;;7.20;2.33;;;26.50;56.20;;;;;;5089650;28;20027;-65
2021/10/31 11:18:16;;;;;;;2.75;1.45;;;26.60;56.40;;;;;;5087461;28;20024;-65
2021/10/31 11:20:45;;;;;;;43.67;35.10;;;26.70;56.10;;;;;;5089764;28;20528;-67
2021/10/31 11:23:14;;;;;;;8.55;6.50;;;26.80;56.30;;;;;;5087780;28;20686;-72
2021/10/31 11:25:43;;;;;;;10.43;3.08;;;26.90;55.90;;;;;;5088617;28;20034;-68
2021/10/31 11:28:12;;;;;;;5.90;2.35;;;27.00;55.70;;;;;;5086402;28;20020;-73
2021/10/31 11:30:41;;;;;;;7.13;2.95;;;27.00;55.60;;;;;;5088229;28;20430;-66
2021/10/31 11:33:09;;;;;;;7.57;2.63;;;27.00;56.30;;;;;;5088975;28;20054;-65
2021/10/31 11:35:37;;;;;;;6.40;2.17;;;27.00;56.30;;;;;;5087670;28;20069;-64
2021/10/31 11:38:13;;;;;;;11.00;3.75;;;27.00;56.50;;;;;;5088996;28;20443;-64
2021/10/31 11:40:47;;;;;;;3.88;2.78;;;27.10;57.50;;;;;;5088244;28;20062;-73
2021/10/31 11:43:22;;;;;;;;;;;27.20;57.80;;;;;;5068045;28;20055;-67
2021/10/31 11:45:52;;;;;;;8.80;2.70;;;27.30;57.70;;;;;;5089534;28;20355;-66
2021/10/31 11:48:24;;;;;;;8.23;2.85;;;27.30;57.60;;;;;;5088154;28;20507;-65
2021/10/31 11:51:13;;;;;;;7.22;2.95;;;27.30;57.80;;;;;;5087479;28;20027;-64
2021/10/31 11:53:48;;;;;;;4.50;2.47;;;27.40;57.20;;;;;;5088021;28;20016;-70
2021/10/31 11:56:26;;;;;;;8.55;3.38;;;27.50;57.10;;;;;;5081710;28;20094;-72
2021/10/31 11:59:03;;;;;;;8.80;3.28;;;27.50;56.70;;;;;;5088750;28;20059;-66
2021/10/31 12:01:37;;;;;;;28.10;21.45;;;27.50;56.70;;;;;;5090072;28;20629;-63
2021/10/31 12:04:10;;;;;;;12.18;5.35;;;27.50;56.90;;;;;;5086779;28;20043;-74
2021/10/31 12:06:43;;;;;;;8.70;4.88;;;27.40;56.70;;;;;;5087701;28;20016;-71
2021/10/31 12:09:26;;;;;;;7.53;3.13;;;27.40;57.00;;;;;;5088460;28;20020;-64
2021/10/31 12:11:56;;;;;;;5.32;3.25;;;27.40;56.60;;;;;;5087262;28;20126;-69
2021/10/31 12:14:56;;;;;;;19.80;11.43;;;27.50;56.60;;;;;;5085652;28;20027;-64
2021/10/31 12:17:24;;;;;;;15.65;6.82;;;27.50;56.60;;;;;;5045564;28;20216;-64
2021/10/31 12:19:55;;;;;;;8.98;4.40;;;27.60;56.70;;;;;;5086699;28;20019;-70
2021/10/31 12:22:31;;;;;;;11.95;4.35;;;27.70;56.70;;;;;;5084879;28;20023;-64
2021/10/31 12:25:02;;;;;;;8.10;4.20;;;27.70;56.20;;;;;;5087759;28;20058;-65
2021/10/31 12:27:50;;;;;;;8.70;3.50;;;27.70;55.90;;;;;;5086704;28;20364;-64
2021/10/31 12:30:26;;;;;;;6.43;2.80;;;27.70;55.90;;;;;;5088970;28;20012;-70
2021/10/31 12:33:02;;;;;;;7.05;3.17;;;27.80;55.80;;;;;;5069487;28;20478;-64
2021/10/31 12:35:33;;;;;;;7.70;3.40;;;27.80;55.30;;;;;;5087036;28;20020;-70
2021/10/31 12:38:17;;;;;;;5.43;2.80;;;27.70;55.10;;;;;;5088313;28;20051;-71
2021/10/31 12:41:04;;;;;;;5.68;2.85;;;27.60;55.00;;;;;;5085982;28;20017;-70
2021/10/31 12:43:44;;;;;;;12.10;4.22;;;27.60;55.30;;;;;;5086360;28;20024;-70
2021/10/31 12:46:29;;;;;;;8.32;3.53;;;27.60;55.50;;;;;;5088718;28;20032;-70
2021/10/31 12:49:00;;;;;;;5.90;3.15;;;27.60;55.30;;;;;;5083556;28;20024;-71
2021/10/31 12:52:03;;;;;;;14.00;2.85;;;27.70;54.80;;;;;;5066509;28;20391;-66
2021/10/31 12:54:38;;;;;;;25.40;22.67;;;27.60;54.60;;;;;;5086396;28;20467;-74
2021/10/31 12:57:11;;;;;;;6.70;4.57;;;27.70;54.80;;;;;;5084938;28;20424;-67
2021/10/31 12:59:53;;;;;;;5.32;3.33;;;27.70;53.60;;;;;;5087609;28;20048;-69